HKKI

Kisumu Airport

Kisumu, Kenya
METAR HKKI 161600Z 32004KT 9999 FEW018CB BKN080 20/18 Q1017
Observed Flight Rules
Jan-16 @ 16:00 UTC (7 hours ago) Visual Flight Rules
Wind Visibility Clouds
320° at 4 knots 10,000+ meters
  • Few at 1,800' AGL
  • Broken at 8,000' AGL
Temperatures Readings
Current 20°C / 68°F
Dewpoint 18°C / 64°F
Humidity 88%
Altimeter 30.03" Hg
Pressure 1016.92 hPa
Elevation 1146
METAR HKKI 161600Z 32004KT 9999 FEW018CB BKN080 20/18 Q1017
Observed Flight Rules
Jan-16 @ 16:00 UTC
(7 hours ago)
VFR
Wind Visibility
320° at 4 knots 10,000+ meters
Clouds
  • Few at 1,800' AGL
  • Broken at 8,000' AGL
Temperature Dewpoint
20°C / 68°F 18°C / 64°F
Humidity Altimeter Pressure
88% 30.03" Hg 1016.92 hPa